Time;durP1;ratioP1;P1;durP2;ratioP2;P2;SDS_P1;SDS_P2;PMS_P1;PMS_P2;Temp;Humidity;BMP_temperature;BMP_pressure;BME280_temperature;BME280_humidity;BME280_pressure;Samples;Min_cycle;Max_cycle;Signal;HPM_P1;HPM_P2
2023/12/03 00:00:07;;;;;;;59.93;24.35;;;;;;;-2.26;94.48;99533.59;1711741;83;27279;-63
2023/12/03 00:02:38;;;;;;;57.40;23.60;;;;;;;-2.26;94.46;99535.70;1711677;83;25879;-65
2023/12/03 00:05:07;;;;;;;56.37;23.25;;;;;;;-2.27;94.43;99532.77;1711958;83;25598;-63
2023/12/03 00:07:36;;;;;;;53.95;22.90;;;;;;;-2.27;94.40;99538.06;1711737;83;26293;-63
2023/12/03 00:10:06;;;;;;;52.40;21.30;;;;;;;-2.27;94.46;99540.72;1711880;83;25427;-63
2023/12/03 00:12:55;;;;;;;50.17;20.32;;;;;;;-2.25;94.48;99543.13;1711851;83;27574;-64
2023/12/03 00:15:22;;;;;;;;;;;;;;;-2.26;94.47;99546.30;1636253;87;25520;-64
2023/12/03 00:17:51;;;;;;;47.78;20.92;;;;;;;-2.26;94.42;99542.33;1633917;87;25778;-63
2023/12/03 00:20:19;;;;;;;46.98;20.40;;;;;;;-2.26;94.49;99544.98;1633860;87;26542;-63
2023/12/03 00:22:48;;;;;;;51.98;21.05;;;;;;;-2.25;94.59;99541.80;1633890;87;25522;-63
2023/12/03 00:25:14;;;;;;;48.40;20.27;;;;;;;-2.25;94.55;99548.42;1633922;87;27327;-64
2023/12/03 00:27:41;;;;;;;52.17;20.35;;;;;;;-2.25;94.55;99548.42;1612296;87;26118;-64
2023/12/03 00:30:12;;;;;;;45.63;18.92;;;;;;;-2.24;94.56;99551.89;1597246;87;25606;-65
2023/12/03 00:32:38;;;;;;;47.90;21.33;;;;;;;-2.24;94.56;99559.31;1612566;87;26332;-64
2023/12/03 00:35:08;;;;;;;51.63;20.85;;;;;;;-2.24;94.56;99555.88;1633929;87;25634;-64
2023/12/03 00:37:34;;;;;;;44.67;19.37;;;;;;;-2.25;94.61;99552.40;1634062;87;28054;-64
2023/12/03 00:40:01;;;;;;;45.63;18.45;;;;;;;-2.27;94.60;99557.94;1633814;87;25631;-64
2023/12/03 00:42:29;;;;;;;46.05;19.27;;;;;;;-2.26;94.60;99559.55;1633930;87;25627;-64
2023/12/03 00:44:55;;;;;;;40.73;18.37;;;;;;;-2.26;94.60;99565.38;1633877;87;26378;-64
2023/12/03 00:47:22;;;;;;;36.98;17.82;;;;;;;-2.26;94.56;99559.55;1633914;87;25542;-65
2023/12/03 00:49:48;;;;;;;47.70;17.52;;;;;;;-2.26;94.55;99568.03;1633894;87;27528;-64
2023/12/03 00:52:15;;;;;;;42.65;17.95;;;;;;;-2.29;94.56;99564.53;1633835;87;25939;-64
2023/12/03 00:54:41;;;;;;;41.70;17.87;;;;;;;-2.26;94.60;99575.98;1633952;87;25662;-65
2023/12/03 00:57:08;;;;;;;44.15;17.15;;;;;;;-2.27;94.63;99575.16;1633950;87;25622;-65
2023/12/03 00:59:34;;;;;;;43.55;17.50;;;;;;;-2.26;94.59;99583.92;1633925;87;25449;-64
2023/12/03 01:02:01;;;;;;;44.63;18.10;;;;;;;-2.28;94.61;99584.70;1633901;87;27933;-63
2023/12/03 01:04:29;;;;;;;40.92;17.23;;;;;;;-2.27;94.65;99579.13;1642416;83;25958;-63
2023/12/03 01:06:58;;;;;;;36.20;16.10;;;;;;;-2.25;94.71;99589.48;1711724;83;25393;-63
2023/12/03 01:09:26;;;;;;;41.13;17.05;;;;;;;-2.26;94.68;99579.95;1711710;83;26467;-63
2023/12/03 01:11:56;;;;;;;38.05;16.52;;;;;;;-2.27;94.63;99591.05;1711730;83;25461;-64
2023/12/03 01:14:21;;;;;;;33.98;15.60;;;;;;;-2.27;94.66;99596.35;1689595;83;27167;-64
2023/12/03 01:16:48;;;;;;;35.65;16.40;;;;;;;-2.26;94.70;99601.15;1716881;83;25468;-63
2023/12/03 01:19:15;;;;;;;36.30;16.48;;;;;;;-2.27;94.72;99609.59;1716888;83;25481;-63
2023/12/03 01:21:41;;;;;;;35.83;16.50;;;;;;;-2.27;94.63;99612.25;1716838;83;25629;-63
2023/12/03 01:24:08;;;;;;;35.20;15.18;;;;;;;-2.28;94.64;99619.14;1716890;83;25156;-63
2023/12/03 01:26:36;;;;;;;35.98;16.00;;;;;;;-2.28;94.66;99621.78;1716928;83;27632;-64
2023/12/03 01:29:06;;;;;;;34.55;15.88;;;;;;;-2.27;94.69;99630.00;1716854;83;26143;-64
2023/12/03 01:31:37;;;;;;;33.95;14.85;;;;;;;-2.28;94.64;99639.01;1717050;83;25204;-64
2023/12/03 01:34:06;;;;;;;32.63;14.70;;;;;;;-2.29;94.64;99638.19;1716886;83;26227;-64
2023/12/03 01:36:32;;;;;;;33.67;15.77;;;;;;;-2.30;94.61;99632.63;1691602;83;25463;-64
2023/12/03 01:38:59;;;;;;;34.40;15.50;;;;;;;-2.29;94.69;99633.41;1716864;83;28034;-64
2023/12/03 01:41:27;;;;;;;33.40;14.90;;;;;;;-2.29;94.69;99641.36;1716805;83;25688;-64
2023/12/03 01:43:55;;;;;;;36.90;15.45;;;;;;;-2.31;94.67;99641.60;1690420;83;25636;-64
2023/12/03 01:46:24;;;;;;;36.17;15.85;;;;;;;-2.29;94.79;99642.16;1716788;83;26275;-63
2023/12/03 01:48:52;;;;;;;36.63;16.32;;;;;;;-2.28;94.79;99645.63;1716865;83;25421;-63
2023/12/03 01:51:20;;;;;;;37.10;16.02;;;;;;;-2.29;94.83;99647.45;1716846;83;27727;-65
2023/12/03 01:53:50;;;;;;;35.63;15.43;;;;;;;-2.30;94.81;99651.16;1716986;83;25639;-63
2023/12/03 01:56:18;;;;;;;39.10;16.70;;;;;;;-2.29;94.82;99659.38;1717023;83;25559;-64
2023/12/03 01:58:46;;;;;;;38.00;15.43;;;;;;;-2.30;94.82;99654.31;1716753;83;25697;-63
2023/12/03 02:01:13;;;;;;;32.30;15.05;;;;;;;-2.29;94.84;99658.05;1716807;83;25457;-63
2023/12/03 02:03:39;;;;;;;29.92;14.75;;;;;;;-2.28;94.85;99662.85;1716848;83;27337;-63
2023/12/03 02:06:10;;;;;;;35.75;15.88;;;;;;;-2.29;94.87;99661.23;1690044;83;25744;-64
2023/12/03 02:08:38;;;;;;;35.25;15.38;;;;;;;-2.29;94.92;99656.73;1716824;83;25559;-63
2023/12/03 02:11:07;;;;;;;33.95;16.32;;;;;;;-2.30;94.91;99656.47;1716768;83;26626;-64
2023/12/03 02:13:39;;;;;;;35.60;16.10;;;;;;;-2.29;94.97;99659.38;1716500;83;25458;-64
2023/12/03 02:16:08;;;;;;;36.08;16.15;;;;;;;-2.28;95.02;99658.87;1711994;83;27327;-64
2023/12/03 02:18:37;;;;;;;38.40;16.07;;;;;;;-2.28;95.02;99662.32;1690141;83;25626;-63
2023/12/03 02:21:08;;;;;;;32.67;16.10;;;;;;;-2.29;95.07;99668.65;1716971;83;25413;-63
2023/12/03 02:23:34;;;;;;;38.30;16.00;;;;;;;-2.26;95.07;99677.45;1716805;83;25660;-63
2023/12/03 02:26:01;;;;;;;32.15;15.30;;;;;;;-2.26;95.07;99679.30;1715530;83;25587;-63
2023/12/03 02:28:28;;;;;;;35.52;15.40;;;;;;;-2.26;95.11;99685.41;1706862;83;27166;-64
2023/12/03 02:30:57;;;;;;;34.15;15.72;;;;;;;-2.25;95.17;99688.84;1689275;84;26195;-64
2023/12/03 02:33:24;;;;;;;34.78;15.80;;;;;;;-2.23;95.14;99696.05;1706951;84;25422;-64
2023/12/03 02:35:52;;;;;;;32.75;15.55;;;;;;;-2.26;95.16;99693.88;1706898;84;25623;-64
2023/12/03 02:38:19;;;;;;;42.23;17.30;;;;;;;-2.24;95.16;99698.41;1706892;84;25629;-64
2023/12/03 02:40:45;;;;;;;36.55;16.73;;;;;;;-2.24;95.12;99705.56;1706823;84;28348;-63
2023/12/03 02:43:12;;;;;;;33.35;15.68;;;;;;;-2.23;95.19;99701.86;1706740;84;25976;-63
2023/12/03 02:45:40;;;;;;;34.50;16.35;;;;;;;-2.23;95.19;99707.16;1706894;83;25462;-63
2023/12/03 02:48:06;;;;;;;37.08;15.72;;;;;;;-2.24;95.16;99712.98;1706877;83;26481;-64
2023/12/03 02:50:33;;;;;;;36.17;17.10;;;;;;;-2.23;95.13;99708.48;1706904;83;25636;-64
2023/12/03 02:53:01;;;;;;;34.05;16.55;;;;;;;-2.25;95.10;99715.34;1706847;84;27686;-64
2023/12/03 02:55:28;;;;;;;40.00;17.55;;;;;;;-2.24;95.05;99728.09;1706880;83;25458;-64
2023/12/03 02:57:55;;;;;;;41.50;16.93;;;;;;;-2.27;94.98;99728.82;1706847;83;25650;-64
2023/12/03 03:00:23;;;;;;;33.58;16.27;;;;;;;-2.28;95.00;99735.18;1706822;83;26459;-64
2023/12/03 03:02:49;;;;;;;39.65;17.60;;;;;;;-2.29;95.00;99740.18;1706892;84;25450;-64
2023/12/03 03:05:16;;;;;;;38.70;16.70;;;;;;;-2.29;94.96;99744.69;1706862;83;27303;-64
2023/12/03 03:07:42;;;;;;;40.70;18.00;;;;;;;-2.31;94.85;99755.52;1706785;84;26356;-64
2023/12/03 03:10:10;;;;;;;37.28;16.97;;;;;;;-2.32;94.81;99760.52;1706821;83;25541;-64
2023/12/03 03:12:37;;;;;;;39.98;17.12;;;;;;;-2.34;94.79;99759.96;1688866;84;25992;-64
2023/12/03 03:15:07;;;;;;;40.17;17.80;;;;;;;-2.35;94.76;99768.97;1708355;83;25648;-64
2023/12/03 03:17:33;;;;;;;40.50;18.35;;;;;;;-2.36;94.73;99775.30;1653460;86;27960;-64
2023/12/03 03:20:00;;;;;;;43.42;18.85;;;;;;;-2.38;94.69;99774.73;1654853;86;25467;-64
2023/12/03 03:22:30;;;;;;;45.20;18.75;;;;;;;-2.39;94.63;99775.76;1653468;86;25558;-63
2023/12/03 03:24:58;;;;;;;38.48;18.05;;;;;;;-2.41;94.54;99779.17;1654791;85;26642;-63
2023/12/03 03:27:28;;;;;;;45.10;18.87;;;;;;;-2.43;94.48;99782.58;1655369;85;25182;-65
2023/12/03 03:29:54;;;;;;;;;;;;;;;-2.46;94.50;99782.52;1634165;86;27382;-63
2023/12/03 03:32:23;;;;;;;40.58;18.67;;;;;;;-2.47;94.56;99795.98;1657749;86;25584;-63
2023/12/03 03:34:54;;;;;;;46.80;18.82;;;;;;;-2.48;94.67;99789.10;1657080;86;25759;-63
2023/12/03 03:37:23;;;;;;;41.75;18.40;;;;;;;-2.50;94.66;99789.86;1682258;84;25863;-63
2023/12/03 03:39:53;;;;;;;41.15;19.17;;;;;;;-2.52;94.68;99794.06;1655458;86;25476;-64
2023/12/03 03:42:23;;;;;;;46.05;20.57;;;;;;;-2.52;94.76;99790.59;1655321;86;27366;-63
2023/12/03 03:44:50;;;;;;;42.70;18.35;;;;;;;-2.54;94.80;99798.77;1655259;86;25555;-64
2023/12/03 03:47:18;;;;;;;42.45;17.95;;;;;;;-2.54;94.90;99802.73;1655388;86;25638;-64
2023/12/03 03:49:44;;;;;;;39.80;17.48;;;;;;;-2.56;94.88;99802.17;1655314;86;26561;-63
2023/12/03 03:52:14;;;;;;;44.40;18.07;;;;;;;-2.55;95.00;99808.30;1655310;86;25509;-64
2023/12/03 03:54:44;;;;;;;35.10;17.37;;;;;;;-2.55;95.05;99814.39;1653441;86;27884;-63
2023/12/03 03:57:13;;;;;;;39.53;18.00;;;;;;;-2.54;95.08;99812.01;1654830;86;25623;-63
2023/12/03 03:59:44;;;;;;;40.55;17.15;;;;;;;-2.54;95.06;99809.89;1655503;86;25609;-63
2023/12/03 04:02:13;;;;;;;37.23;16.50;;;;;;;-2.54;95.13;99819.95;1676500;84;25908;-63
2023/12/03 04:04:39;;;;;;;42.05;19.25;;;;;;;-2.55;95.07;99821.54;1657950;86;25563;-63
2023/12/03 04:07:06;;;;;;;39.15;18.55;;;;;;;-2.56;94.92;99826.54;1657928;86;27698;-64
2023/12/03 04:09:32;;;;;;;40.35;18.98;;;;;;;-2.56;94.84;99826.54;1657646;86;25650;-65
2023/12/03 04:11:59;;;;;;;41.33;18.60;;;;;;;-2.56;94.80;99831.84;1655231;86;25730;-64
2023/12/03 04:14:25;;;;;;;40.48;18.27;;;;;;;-2.58;94.79;99827.30;1655443;86;25544;-63
2023/12/03 04:17:03;;;;;;;40.73;19.17;;;;;;;-2.59;94.74;99827.80;1657797;86;25648;-63
2023/12/03 04:19:29;;;;;;;39.92;17.92;;;;;;;-2.61;94.69;99827.23;1657809;86;28029;-63
2023/12/03 04:21:58;;;;;;;40.10;19.02;;;;;;;-2.61;94.69;99830.41;1657616;86;25431;-63
2023/12/03 04:24:24;;;;;;;38.25;18.00;;;;;;;-2.63;94.70;99839.91;1649983;86;25672;-63
2023/12/03 04:26:53;;;;;;;41.33;19.80;;;;;;;-2.64;94.67;99843.08;1648518;86;25969;-63
2023/12/03 04:29:20;;;;;;;42.15;19.23;;;;;;;-2.64;94.72;99850.20;1648458;87;25201;-63
2023/12/03 04:31:50;;;;;;;39.42;19.25;;;;;;;-2.65;94.85;99853.38;1648430;86;27690;-64
2023/12/03 04:34:16;;;;;;;41.75;19.62;;;;;;;-2.63;95.03;99850.49;1648445;87;25543;-64
2023/12/03 04:36:45;;;;;;;41.92;20.02;;;;;;;-2.61;95.14;99855.03;1648361;87;25665;-64
2023/12/03 04:39:11;;;;;;;38.70;20.12;;;;;;;-2.59;95.26;99862.75;1648412;87;25628;-63
2023/12/03 04:41:38;;;;;;;44.33;19.20;;;;;;;-2.58;95.31;99863.05;1648461;87;25491;-64
2023/12/03 04:44:07;;;;;;;45.63;18.90;;;;;;;-2.56;95.37;99858.31;1672919;84;28057;-64
2023/12/03 04:46:34;;;;;;;39.05;18.48;;;;;;;-2.54;95.43;99862.33;1648429;87;25601;-65
2023/12/03 04:49:02;;;;;;;42.10;19.57;;;;;;;-2.53;95.38;99853.88;1648389;86;25651;-64
2023/12/03 04:51:28;;;;;;;46.77;22.22;;;;;;;-2.53;95.32;99856.53;1648355;86;25652;-64
2023/12/03 04:53:55;;;;;;;39.67;21.10;;;;;;;-2.52;95.29;99862.92;1648372;87;25670;-65
2023/12/03 04:56:21;;;;;;;45.80;21.55;;;;;;;-2.50;95.35;99864.81;1648346;87;27349;-64
2023/12/03 04:58:48;;;;;;;45.03;21.65;;;;;;;-2.49;95.34;99869.05;1648281;86;25438;-64
2023/12/03 05:01:19;;;;;;;41.80;21.12;;;;;;;-2.49;95.27;99865.08;1648351;86;25701;-65
2023/12/03 05:03:49;;;;;;;45.98;21.37;;;;;;;-2.47;95.25;99866.17;1648450;86;25618;-64
2023/12/03 05:06:15;;;;;;;43.30;21.65;;;;;;;-2.47;95.27;99859.55;1648528;87;25649;-64
2023/12/03 05:08:42;;;;;;;49.63;23.62;;;;;;;-2.45;95.24;99864.13;1648374;86;27707;-63
2023/12/03 05:11:11;;;;;;;49.05;22.85;;;;;;;-2.45;95.33;99870.75;1648274;86;25418;-64
2023/12/03 05:13:38;;;;;;;51.65;23.18;;;;;;;-2.44;95.36;99871.81;1648474;87;25399;-64
2023/12/03 05:16:10;;;;;;;48.45;22.77;;;;;;;-2.43;95.41;99875.28;1640518;86;25504;-64
2023/12/03 05:18:36;;;;;;;51.60;23.67;;;;;;;-2.41;95.51;99883.00;1630873;88;25472;-63
2023/12/03 05:21:07;;;;;;;49.83;23.65;;;;;;;-2.40;95.58;99892.05;1670175;85;27337;-63
2023/12/03 05:23:37;;;;;;;43.92;21.65;;;;;;;-2.38;95.57;99898.41;1670167;85;25595;-63
2023/12/03 05:26:06;;;;;;;50.52;22.70;;;;;;;-2.37;95.57;99902.67;1670300;85;25464;-63
2023/12/03 05:28:33;;;;;;;44.85;21.25;;;;;;;-2.37;95.60;99910.09;1670275;85;25593;-63
2023/12/03 05:30:59;;;;;;;46.60;22.42;;;;;;;-2.37;95.66;99912.75;1670171;85;25404;-63
2023/12/03 05:33:26;;;;;;;47.73;22.70;;;;;;;-2.35;95.69;99914.67;1670147;85;27687;-63
2023/12/03 05:35:52;;;;;;;46.13;22.75;;;;;;;-2.34;95.71;99918.11;1670054;85;25566;-63
2023/12/03 05:38:19;;;;;;;47.98;23.60;;;;;;;-2.33;95.76;99923.71;1670087;85;25565;-63
2023/12/03 05:40:45;;;;;;;46.88;21.80;;;;;;;-2.32;95.81;99931.92;1699011;84;26469;-63
2023/12/03 05:43:16;;;;;;;41.98;20.40;;;;;;;-2.33;95.81;99930.33;1670332;85;25629;-64
2023/12/03 05:45:45;;;;;;;47.73;22.95;;;;;;;-2.33;95.86;99931.13;1670333;85;27721;-64
2023/12/03 05:48:11;;;;;;;46.10;22.62;;;;;;;-2.32;95.95;99938.02;1670172;85;25553;-64
2023/12/03 05:50:40;;;;;;;51.13;24.12;;;;;;;-2.31;96.00;99947.59;1670289;85;25558;-65
2023/12/03 05:53:07;;;;;;;46.80;22.87;;;;;;;-2.29;96.10;99944.19;1670226;85;25667;-65
2023/12/03 05:55:34;;;;;;;46.63;20.95;;;;;;;-2.27;96.11;99947.93;1670195;85;25658;-64
2023/12/03 05:58:01;;;;;;;42.40;21.00;;;;;;;-2.26;96.12;99950.36;1670122;85;27680;-64
2023/12/03 06:00:31;;;;;;;;;;;;;;;-2.24;96.16;99955.95;1672578;85;25603;-64
2023/12/03 06:02:59;;;;;;;41.88;19.87;;;;;;;-2.22;96.27;99955.19;1670224;85;25477;-64
2023/12/03 06:05:28;;;;;;;;;;;;;;;-2.21;96.32;99959.44;1672558;85;26632;-65
2023/12/03 06:07:54;;;;;;;48.63;19.87;;;;;;;-2.21;96.37;99964.23;1670178;85;25450;-64
2023/12/03 06:10:21;;;;;;;44.38;21.30;;;;;;;-2.18;96.42;99972.23;1670117;85;27745;-65
2023/12/03 06:12:47;;;;;;;45.40;21.73;;;;;;;-2.17;96.42;99971.20;1670020;85;25398;-65
2023/12/03 06:15:17;;;;;;;41.55;20.72;;;;;;;-2.16;96.38;99973.62;1670684;84;25638;-64
2023/12/03 06:17:45;;;;;;;;;;;;;;;-2.14;96.40;99981.34;1677247;85;25992;-65
2023/12/03 06:20:15;;;;;;;46.50;20.80;;;;;;;-2.12;96.51;99977.94;1674829;85;25659;-63
2023/12/03 06:22:41;;;;;;;48.38;21.52;;;;;;;-2.10;96.60;99977.98;1674665;85;28571;-64
2023/12/03 06:25:10;;;;;;;45.70;21.07;;;;;;;-2.07;96.63;99987.32;1674644;85;25625;-63
2023/12/03 06:27:40;;;;;;;42.58;20.45;;;;;;;-2.05;96.61;99993.19;1674944;85;25613;-64
2023/12/03 06:30:11;;;;;;;49.25;22.20;;;;;;;-2.02;96.62;99994.58;1674787;85;25577;-64
2023/12/03 06:32:38;;;;;;;51.00;23.65;;;;;;;-2.01;96.57;100003.63;1674868;85;25693;-65
2023/12/03 06:35:11;;;;;;;51.05;23.95;;;;;;;-2.00;96.48;100003.90;1674748;85;28124;-65
2023/12/03 06:37:37;;;;;;;56.30;23.92;;;;;;;-2.00;96.47;100005.22;1674827;85;25476;-65
2023/12/03 06:40:08;;;;;;;56.08;23.77;;;;;;;-1.97;96.52;100002.64;1674762;85;25672;-65
2023/12/03 06:42:34;;;;;;;54.33;23.73;;;;;;;-1.95;96.47;100005.86;1674766;85;26406;-67
2023/12/03 06:45:07;;;;;;;51.48;23.98;;;;;;;-1.94;96.53;100008.78;1674872;85;25472;-67
2023/12/03 06:47:34;;;;;;;55.90;22.93;;;;;;;-1.91;96.67;100007.82;1674901;85;27389;-67
2023/12/03 06:50:00;;;;;;;54.58;22.80;;;;;;;-1.89;96.51;100011.54;1674705;85;25480;-66
2023/12/03 06:52:29;;;;;;;54.35;24.98;;;;;;;-1.86;96.58;100014.25;1674795;85;25808;-67
2023/12/03 06:54:58;;;;;;;56.98;23.05;;;;;;;-1.84;96.64;100010.84;1674983;85;26573;-67
2023/12/03 06:57:25;;;;;;;54.95;22.65;;;;;;;-1.81;96.54;100018.34;1674902;85;25581;-67
2023/12/03 06:59:51;;;;;;;51.30;23.38;;;;;;;-1.78;96.63;100021.86;1674674;85;28405;-67
2023/12/03 07:02:21;;;;;;;50.20;21.95;;;;;;;-1.76;96.77;100021.09;1674730;85;25446;-67
2023/12/03 07:04:49;;;;;;;52.53;22.75;;;;;;;-1.73;96.70;100024.08;1674970;85;25591;-67
2023/12/03 07:07:16;;;;;;;56.50;22.10;;;;;;;-1.71;96.79;100027.30;1674732;85;26616;-66
2023/12/03 07:09:48;;;;;;;52.98;22.50;;;;;;;-1.66;96.82;100034.56;1675070;85;25634;-66
2023/12/03 07:12:16;;;;;;;52.62;22.52;;;;;;;-1.67;96.62;100038.24;1675029;85;27695;-66
2023/12/03 07:14:45;;;;;;;58.23;24.32;;;;;;;-1.65;96.56;100036.19;1674952;85;25474;-67
2023/12/03 07:17:14;;;;;;;55.48;23.57;;;;;;;-1.63;96.50;100043.91;1728623;82;25558;-67
2023/12/03 07:19:47;;;;;;;60.15;23.57;;;;;;;-1.61;96.46;100045.80;1711955;83;25664;-66
2023/12/03 07:22:16;;;;;;;58.17;23.73;;;;;;;-1.61;96.46;100047.93;1711884;83;25478;-66
2023/12/03 07:24:47;;;;;;;63.05;25.17;;;;;;;-1.61;96.27;100049.26;1711930;83;27680;-66
2023/12/03 07:27:14;;;;;;;77.95;28.98;;;;;;;-1.64;96.19;100047.06;1711740;83;25746;-66
2023/12/03 07:29:42;;;;;;;66.87;27.87;;;;;;;-1.63;96.17;100056.64;1711770;83;25710;-66
2023/12/03 07:32:09;;;;;;;74.17;28.47;;;;;;;-1.62;96.33;100060.09;1711725;83;26333;-66
2023/12/03 07:34:45;;;;;;;62.10;25.17;;;;;;;-1.61;96.42;100059.86;1711567;83;25617;-66
2023/12/03 07:37:12;;;;;;;58.78;24.02;;;;;;;-1.58;96.50;100062.06;1711879;83;28346;-67
2023/12/03 07:39:47;;;;;;;53.65;23.77;;;;;;;-1.55;96.46;100064.75;1711847;83;25603;-66
2023/12/03 07:42:14;;;;;;;50.70;22.00;;;;;;;-1.54;96.56;100064.52;1711860;83;25490;-67
2023/12/03 07:44:40;;;;;;;51.68;22.25;;;;;;;-1.49;96.54;100061.70;1711752;83;26159;-67
2023/12/03 07:47:07;;;;;;;51.55;22.27;;;;;;;-1.51;96.55;100060.08;1711963;82;25521;-66
2023/12/03 07:49:34;;;;;;;60.40;24.47;;;;;;;-1.42;96.85;100065.81;1711890;83;27674;-67
2023/12/03 07:52:04;;;;;;;60.17;24.70;;;;;;;-1.38;96.85;100066.98;1712135;83;25985;-68
2023/12/03 07:54:30;;;;;;;52.78;23.92;;;;;;;-1.38;96.46;100064.32;1711862;83;25624;-66
2023/12/03 07:56:57;;;;;;;59.93;23.77;;;;;;;-1.35;96.38;100067.01;1711748;83;25665;-67
2023/12/03 08:02:19;;;;;;;57.93;22.98;;;;;;;-1.28;96.09;100066.88;1692375;84;27874;-67
2023/12/03 08:04:45;;;;;;;51.85;22.50;;;;;;;-1.25;96.09;100077.83;1692311;84;25582;-66
2023/12/03 08:07:14;;;;;;;54.13;23.07;;;;;;;-1.21;96.30;100084.29;1692386;83;25266;-66
2023/12/03 08:09:42;;;;;;;55.52;25.23;;;;;;;-1.13;96.72;100081.77;1692305;84;25636;-66
2023/12/03 08:12:08;;;;;;;53.40;23.67;;;;;;;-1.08;96.68;100087.70;1692277;83;25667;-66
2023/12/03 08:14:38;;;;;;;56.40;24.65;;;;;;;-1.03;96.85;100083.28;1717373;82;27355;-67
2023/12/03 08:17:12;;;;;;;65.50;25.02;;;;;;;-0.98;96.99;100087.36;1692395;84;25702;-66
2023/12/03 08:19:42;;;;;;;55.43;24.18;;;;;;;-0.92;97.15;100081.61;1692477;84;25430;-66
2023/12/03 08:22:09;;;;;;;56.30;24.50;;;;;;;-0.82;97.49;100088.97;1692375;84;26652;-66
2023/12/03 08:24:41;;;;;;;56.20;24.75;;;;;;;-0.74;97.21;100094.43;1692342;84;25622;-67
2023/12/03 08:27:13;;;;;;;59.30;26.15;;;;;;;-0.76;96.11;100096.80;1692497;84;28197;-66
2023/12/03 08:29:41;;;;;;;58.98;24.90;;;;;;;-0.70;96.59;100098.20;1692561;84;25601;-67
2023/12/03 08:32:19;;;;;;;59.88;24.40;;;;;;;-0.66;96.41;100094.05;1716764;83;25526;-67
2023/12/03 08:34:46;;;;;;;55.63;24.82;;;;;;;-0.64;96.10;100096.73;1697458;83;25679;-66
2023/12/03 08:37:20;;;;;;;55.15;23.27;;;;;;;-0.61;95.89;100096.27;1679666;84;25514;-66
2023/12/03 08:39:49;;;;;;;57.88;24.98;;;;;;;-0.52;96.75;100104.64;1697335;84;28093;-66
2023/12/03 08:42:19;;;;;;;60.90;24.30;;;;;;;-0.41;97.08;100108.27;1697053;84;25650;-66
2023/12/03 08:44:48;;;;;;;53.28;25.05;;;;;;;-0.31;97.12;100103.12;1703018;83;25539;-67
2023/12/03 08:47:15;;;;;;;52.15;23.83;;;;;;;-0.29;95.98;100110.35;1697351;84;25998;-67
2023/12/03 08:49:44;;;;;;;51.18;22.80;;;;;;;-0.23;96.33;100104.05;1680269;84;25670;-66
2023/12/03 08:52:15;;;;;;;52.00;23.40;;;;;;;-0.09;97.11;100111.17;1697270;84;27303;-67
2023/12/03 08:54:47;;;;;;;59.93;24.95;;;;;;;0.00;96.97;100115.59;1697009;84;25401;-67
2023/12/03 08:57:13;;;;;;;59.18;25.50;;;;;;;0.10;96.18;100118.40;1697347;84;25569;-68
2023/12/03 08:59:40;;;;;;;57.10;25.02;;;;;;;0.17;96.27;100116.88;1697229;83;25567;-66
2023/12/03 09:02:07;;;;;;;53.30;22.32;;;;;;;0.34;96.99;100123.50;1710275;83;25677;-68
2023/12/03 09:04:38;;;;;;;56.83;25.05;;;;;;;0.50;97.25;100124.53;1669765;85;27342;-66
2023/12/03 09:07:06;;;;;;;53.58;23.50;;;;;;;0.65;97.24;100128.72;1693706;84;25332;-68
2023/12/03 09:09:32;;;;;;;50.80;24.30;;;;;;;0.75;96.36;100126.72;1684891;85;25254;-68
2023/12/03 09:11:59;;;;;;;50.75;22.40;;;;;;;0.88;96.34;100128.19;1684808;85;26044;-68
2023/12/03 09:14:27;;;;;;;53.90;24.65;;;;;;;0.87;94.80;100127.39;1684882;84;25620;-69
2023/12/03 09:16:56;;;;;;;51.63;25.15;;;;;;;0.91;94.29;100134.36;1684944;85;27334;-68
2023/12/03 09:19:26;;;;;;;50.80;23.15;;;;;;;0.92;93.97;100140.77;1684680;84;25533;-68
2023/12/03 09:21:53;;;;;;;45.03;21.10;;;;;;;0.86;93.20;100136.42;1684733;85;25662;-67
2023/12/03 09:24:26;;;;;;;47.00;22.07;;;;;;;0.85;92.38;100136.67;1684813;85;25497;-69
2023/12/03 09:26:54;;;;;;;47.13;21.85;;;;;;;0.80;92.19;100133.44;1684962;84;25160;-67
2023/12/03 09:29:20;;;;;;;48.25;24.32;;;;;;;0.76;92.16;100138.96;1684922;85;28001;-68
2023/12/03 09:31:50;;;;;;;50.23;22.87;;;;;;;0.74;92.18;100141.07;1684689;85;25671;-67
2023/12/03 09:34:22;;;;;;;50.75;24.25;;;;;;;0.69;90.90;100146.33;1684856;85;25547;-66
2023/12/03 09:36:52;;;;;;;47.13;22.98;;;;;;;0.51;90.43;100144.75;1684774;85;25969;-67
2023/12/03 09:39:19;;;;;;;46.37;23.75;;;;;;;0.44;90.69;100148.13;1684861;85;25410;-67
2023/12/03 09:41:49;;;;;;;55.55;27.17;;;;;;;0.36;90.72;100148.03;1684990;84;28334;-67
2023/12/03 09:44:31;;;;;;;50.50;24.07;;;;;;;0.31;90.57;100151.95;1684689;85;25569;-64
2023/12/03 09:47:00;;;;;;;53.33;24.25;;;;;;;0.25;90.88;100152.91;1685008;84;25584;-64
2023/12/03 09:49:29;;;;;;;51.95;24.43;;;;;;;0.18;90.52;100155.73;1684239;85;25766;-65
2023/12/03 09:52:00;;;;;;;53.80;25.08;;;;;;;0.11;90.44;100160.42;1684467;85;25961;-64
2023/12/03 09:54:28;;;;;;;49.42;23.02;;;;;;;0.04;90.46;100160.58;1666451;85;27371;-64
2023/12/03 09:56:59;;;;;;;48.37;23.17;;;;;;;-0.02;90.71;100160.20;1685026;85;25630;-65
2023/12/03 09:59:29;;;;;;;50.10;23.67;;;;;;;-0.07;90.39;100170.26;1685062;85;25475;-64
2023/12/03 10:01:59;;;;;;;50.03;24.98;;;;;;;-0.16;90.31;100169.03;1688655;84;26013;-65
2023/12/03 10:04:27;;;;;;;46.98;23.87;;;;;;;-0.20;90.79;100164.72;1690713;84;25208;-66
2023/12/03 10:06:58;;;;;;;52.30;23.40;;;;;;;-0.21;90.96;100168.95;1690449;84;28338;-65
2023/12/03 10:09:27;;;;;;;46.63;22.87;;;;;;;-0.23;90.98;100174.50;1681212;85;25503;-64
2023/12/03 10:12:01;;;;;;;47.23;22.45;;;;;;;-0.26;91.07;100176.30;1682355;85;25514;-64
2023/12/03 10:14:29;;;;;;;43.35;20.37;;;;;;;-0.28;91.33;100174.95;1670293;85;25694;-63
2023/12/03 10:16:56;;;;;;;40.55;21.10;;;;;;;-0.30;91.37;100167.20;1700347;84;25587;-65
2023/12/03 10:19:27;;;;;;;44.58;20.85;;;;;;;-0.30;91.36;100179.17;1700106;84;28366;-64
2023/12/03 10:21:59;;;;;;;43.02;19.12;;;;;;;-0.32;91.45;100183.92;1682140;85;25595;-65
2023/12/03 10:24:28;;;;;;;43.83;20.92;;;;;;;-0.30;91.62;100189.00;1700158;84;25607;-64
2023/12/03 10:27:03;;;;;;;42.55;19.25;;;;;;;-0.33;91.49;100186.81;1682201;85;26273;-64
2023/12/03 10:29:33;;;;;;;42.08;19.35;;;;;;;-0.31;91.62;100187.38;1695943;84;25545;-63
2023/12/03 10:32:02;;;;;;;43.87;21.43;;;;;;;-0.35;91.68;100188.91;1698905;84;27894;-63
2023/12/03 10:34:30;;;;;;;46.33;20.80;;;;;;;-0.37;91.75;100186.49;1679183;84;25407;-64
2023/12/03 10:36:59;;;;;;;43.73;21.05;;;;;;;-0.36;91.86;100185.95;1658460;85;25699;-64
2023/12/03 10:39:25;;;;;;;49.80;23.20;;;;;;;-0.36;91.80;100192.61;1680473;85;25517;-64
2023/12/03 10:41:54;;;;;;;47.05;21.82;;;;;;;-0.36;92.02;100196.06;1700128;84;25603;-64
2023/12/03 10:44:27;;;;;;;47.73;21.67;;;;;;;-0.39;91.87;100193.91;1682251;85;28361;-62
2023/12/03 10:46:57;;;;;;;53.23;25.92;;;;;;;-0.39;92.08;100188.05;1694290;84;25667;-65
2023/12/03 10:49:27;;;;;;;47.48;22.73;;;;;;;-0.32;92.72;100189.73;1672988;85;25507;-63
2023/12/03 10:51:55;;;;;;;44.93;21.93;;;;;;;-0.29;92.78;100185.28;1690482;84;25628;-63
2023/12/03 10:54:24;;;;;;;44.25;20.70;;;;;;;-0.26;92.78;100191.45;1673034;85;25452;-65
2023/12/03 10:56:55;;;;;;;46.65;21.27;;;;;;;-0.22;93.04;100188.09;1690480;84;28061;-62
2023/12/03 10:59:27;;;;;;;45.25;20.77;;;;;;;-0.16;93.23;100192.95;1672939;85;25639;-62
2023/12/03 11:01:57;;;;;;;47.50;20.90;;;;;;;-0.14;92.63;100199.37;1670350;85;25596;-62
2023/12/03 11:05:01;;;;;;;46.73;21.37;;;;;;;-0.17;92.34;100195.35;1700261;83;25737;-63
2023/12/03 11:07:31;;;;;;;46.45;21.90;;;;;;;-0.24;92.05;100199.48;1700186;84;25396;-63
2023/12/03 11:10:00;;;;;;;49.63;20.90;;;;;;;-0.25;92.48;100207.70;1700410;84;27362;-63
2023/12/03 11:12:27;;;;;;;49.20;22.03;;;;;;;-0.23;92.86;100212.25;1700348;84;25267;-64
2023/12/03 11:14:56;;;;;;;47.13;20.88;;;;;;;-0.27;92.58;100210.59;1690985;84;25632;-64
2023/12/03 11:17:34;;;;;;;54.88;21.85;;;;;;;-0.26;92.68;100212.19;1675900;85;25666;-63
2023/12/03 11:20:11;;;;;;;53.25;22.20;;;;;;;-0.25;92.92;100212.48;1699993;84;25592;-63
2023/12/03 11:22:49;;;;;;;50.60;21.17;;;;;;;-0.24;93.05;100215.94;1711939;83;27653;-63
2023/12/03 11:25:22;;;;;;;47.38;22.20;;;;;;;-0.26;92.94;100218.84;1699135;84;26009;-63